sensor_id;sensor_type;location;lat;lon;timestamp;temperature;humidity
15937;DHT22;9163;48.818;8.976;2024-01-10T00:02:18;-5.10;1.00
15937;DHT22;9163;48.818;8.976;2024-01-10T00:04:45;-5.10;1.00
15937;DHT22;9163;48.818;8.976;2024-01-10T00:07:12;-5.10;1.00
15937;DHT22;9163;48.818;8.976;2024-01-10T00:09:39;-5.10;1.00
15937;DHT22;9163;48.818;8.976;2024-01-10T00:12:07;-5.20;1.00
15937;DHT22;9163;48.818;8.976;2024-01-10T00:14:34;-5.10;1.00
15937;DHT22;9163;48.818;8.976;2024-01-10T00:17:03;-5.10;1.00
15937;DHT22;9163;48.818;8.976;2024-01-10T00:19:31;-5.00;1.00
15937;DHT22;9163;48.818;8.976;2024-01-10T00:21:58;-5.10;1.00
15937;DHT22;9163;48.818;8.976;2024-01-10T00:24:25;-5.00;1.00
15937;DHT22;9163;48.818;8.976;2024-01-10T00:26:52;-5.00;1.00
15937;DHT22;9163;48.818;8.976;2024-01-10T00:29:19;-5.00;1.00
15937;DHT22;9163;48.818;8.976;2024-01-10T00:31:46;-5.00;1.00
15937;DHT22;9163;48.818;8.976;2024-01-10T00:34:15;-5.00;1.00
15937;DHT22;9163;48.818;8.976;2024-01-10T00:36:43;-5.00;1.00
15937;DHT22;9163;48.818;8.976;2024-01-10T00:39:10;-5.00;1.00
15937;DHT22;9163;48.818;8.976;2024-01-10T00:41:37;-5.00;1.00
15937;DHT22;9163;48.818;8.976;2024-01-10T00:44:04;-5.00;1.00
15937;DHT22;9163;48.818;8.976;2024-01-10T00:46:32;-4.80;1.00
15937;DHT22;9163;48.818;8.976;2024-01-10T00:48:59;-4.90;1.00
15937;DHT22;9163;48.818;8.976;2024-01-10T00:51:27;-4.90;1.00
15937;DHT22;9163;48.818;8.976;2024-01-10T00:53:54;-4.90;1.00
15937;DHT22;9163;48.818;8.976;2024-01-10T00:56:22;-4.90;1.00
15937;DHT22;9163;48.818;8.976;2024-01-10T00:58:49;-4.90;1.00
15937;DHT22;9163;48.818;8.976;2024-01-10T01:01:16;-4.90;1.00
15937;DHT22;9163;48.818;8.976;2024-01-10T01:03:43;-4.90;1.00
15937;DHT22;9163;48.818;8.976;2024-01-10T01:06:10;-4.90;1.00
15937;DHT22;9163;48.818;8.976;2024-01-10T01:08:39;-4.90;1.00
15937;DHT22;9163;48.818;8.976;2024-01-10T01:11:06;-4.90;1.00
15937;DHT22;9163;48.818;8.976;2024-01-10T01:13:33;-4.90;1.00
15937;DHT22;9163;48.818;8.976;2024-01-10T01:16:01;-4.90;1.00
15937;DHT22;9163;48.818;8.976;2024-01-10T01:18:28;-4.90;1.00
15937;DHT22;9163;48.818;8.976;2024-01-10T01:20:55;-4.90;1.00
15937;DHT22;9163;48.818;8.976;2024-01-10T01:23:22;-4.90;1.00
15937;DHT22;9163;48.818;8.976;2024-01-10T01:25:51;-4.90;1.00
15937;DHT22;9163;48.818;8.976;2024-01-10T01:28:18;-4.90;1.00
15937;DHT22;9163;48.818;8.976;2024-01-10T01:30:45;-4.90;1.00
15937;DHT22;9163;48.818;8.976;2024-01-10T01:33:12;-4.80;1.00
15937;DHT22;9163;48.818;8.976;2024-01-10T01:35:39;-4.80;1.00
15937;DHT22;9163;48.818;8.976;2024-01-10T01:38:07;-4.80;1.00
15937;DHT22;9163;48.818;8.976;2024-01-10T01:40:34;-4.80;1.00
15937;DHT22;9163;48.818;8.976;2024-01-10T01:43:19;-4.80;1.00
15937;DHT22;9163;48.818;8.976;2024-01-10T01:45:46;-4.80;1.00
15937;DHT22;9163;48.818;8.976;2024-01-10T01:48:14;-4.90;1.00
15937;DHT22;9163;48.818;8.976;2024-01-10T01:50:41;-4.80;1.00
15937;DHT22;9163;48.818;8.976;2024-01-10T01:53:08;-4.80;1.00
15937;DHT22;9163;48.818;8.976;2024-01-10T01:55:36;-4.80;1.00
15937;DHT22;9163;48.818;8.976;2024-01-10T01:58:05;-4.80;33.60
15937;DHT22;9163;48.818;8.976;2024-01-10T02:00:32;-4.80;97.50
15937;DHT22;9163;48.818;8.976;2024-01-10T02:02:59;-4.70;50.50
15937;DHT22;9163;48.818;8.976;2024-01-10T02:05:28;-4.70;24.40
15937;DHT22;9163;48.818;8.976;2024-01-10T02:07:55;-4.70;22.50
15937;DHT22;9163;48.818;8.976;2024-01-10T02:10:22;-4.70;52.20
15937;DHT22;9163;48.818;8.976;2024-01-10T02:12:50;-4.70;91.20
15937;DHT22;9163;48.818;8.976;2024-01-10T02:15:18;-4.70;81.50
15937;DHT22;9163;48.818;8.976;2024-01-10T02:17:46;-4.70;81.40
15937;DHT22;9163;48.818;8.976;2024-01-10T02:20:15;-4.70;11.30
15937;DHT22;9163;48.818;8.976;2024-01-10T02:22:43;-4.70;12.60
15937;DHT22;9163;48.818;8.976;2024-01-10T02:25:12;-4.70;15.70
15937;DHT22;9163;48.818;8.976;2024-01-10T02:27:40;-4.70;23.00
15937;DHT22;9163;48.818;8.976;2024-01-10T02:30:08;-4.80;23.80
15937;DHT22;9163;48.818;8.976;2024-01-10T02:32:36;-4.80;43.30
15937;DHT22;9163;48.818;8.976;2024-01-10T02:35:04;-4.80;58.80
15937;DHT22;9163;48.818;8.976;2024-01-10T02:37:32;-4.80;78.60
15937;DHT22;9163;48.818;8.976;2024-01-10T02:39:59;-4.80;55.90
15937;DHT22;9163;48.818;8.976;2024-01-10T02:42:28;-4.90;80.80
15937;DHT22;9163;48.818;8.976;2024-01-10T02:44:56;-4.90;98.20
15937;DHT22;9163;48.818;8.976;2024-01-10T02:47:23;-5.00;99.90
15937;DHT22;9163;48.818;8.976;2024-01-10T02:49:50;-5.10;99.90
15937;DHT22;9163;48.818;8.976;2024-01-10T02:52:17;-5.10;99.90
15937;DHT22;9163;48.818;8.976;2024-01-10T02:54:45;-5.20;99.90
15937;DHT22;9163;48.818;8.976;2024-01-10T02:57:13;-5.10;99.90
15937;DHT22;9163;48.818;8.976;2024-01-10T02:59:41;-5.20;99.90
15937;DHT22;9163;48.818;8.976;2024-01-10T03:02:08;-5.20;99.90
15937;DHT22;9163;48.818;8.976;2024-01-10T03:04:35;-5.20;99.90
15937;DHT22;9163;48.818;8.976;2024-01-10T03:07:03;-5.30;99.90
15937;DHT22;9163;48.818;8.976;2024-01-10T03:09:30;-5.30;99.90
15937;DHT22;9163;48.818;8.976;2024-01-10T03:11:57;-5.20;99.90
15937;DHT22;9163;48.818;8.976;2024-01-10T03:14:24;-5.30;1.00
15937;DHT22;9163;48.818;8.976;2024-01-10T03:16:53;-5.20;1.00
15937;DHT22;9163;48.818;8.976;2024-01-10T03:19:20;-5.30;1.00
15937;DHT22;9163;48.818;8.976;2024-01-10T03:21:47;-5.20;1.00
15937;DHT22;9163;48.818;8.976;2024-01-10T03:24:15;-5.20;1.00
15937;DHT22;9163;48.818;8.976;2024-01-10T03:26:42;-5.20;1.00
15937;DHT22;9163;48.818;8.976;2024-01-10T03:29:10;-5.20;1.00
15937;DHT22;9163;48.818;8.976;2024-01-10T03:31:37;-5.10;1.00
15937;DHT22;9163;48.818;8.976;2024-01-10T03:34:05;-5.10;1.00
15937;DHT22;9163;48.818;8.976;2024-01-10T03:36:33;-5.20;1.00
15937;DHT22;9163;48.818;8.976;2024-01-10T03:39:00;-5.20;1.00
15937;DHT22;9163;48.818;8.976;2024-01-10T03:41:27;-5.20;1.00
15937;DHT22;9163;48.818;8.976;2024-01-10T03:43:54;-5.20;1.00
15937;DHT22;9163;48.818;8.976;2024-01-10T03:46:21;-5.20;1.00
15937;DHT22;9163;48.818;8.976;2024-01-10T03:48:49;-5.20;1.00
15937;DHT22;9163;48.818;8.976;2024-01-10T03:51:19;-5.20;1.00
15937;DHT22;9163;48.818;8.976;2024-01-10T03:53:47;-5.20;1.00
15937;DHT22;9163;48.818;8.976;2024-01-10T03:56:15;-5.10;1.00
15937;DHT22;9163;48.818;8.976;2024-01-10T03:58:43;-5.10;1.00
15937;DHT22;9163;48.818;8.976;2024-01-10T04:01:10;-5.20;1.00
15937;DHT22;9163;48.818;8.976;2024-01-10T04:03:39;-5.20;1.00
15937;DHT22;9163;48.818;8.976;2024-01-10T04:06:08;-5.10;1.00
15937;DHT22;9163;48.818;8.976;2024-01-10T04:08:36;-5.10;1.00
15937;DHT22;9163;48.818;8.976;2024-01-10T04:11:04;-5.00;1.00
15937;DHT22;9163;48.818;8.976;2024-01-10T04:13:31;-5.00;1.00
15937;DHT22;9163;48.818;8.976;2024-01-10T04:15:58;-4.90;1.00
15937;DHT22;9163;48.818;8.976;2024-01-10T04:18:26;-4.90;1.00
15937;DHT22;9163;48.818;8.976;2024-01-10T04:20:53;-4.80;1.00
15937;DHT22;9163;48.818;8.976;2024-01-10T04:23:20;-4.80;1.00
15937;DHT22;9163;48.818;8.976;2024-01-10T04:25:48;-4.70;1.00
15937;DHT22;9163;48.818;8.976;2024-01-10T04:28:16;-4.70;1.00
15937;DHT22;9163;48.818;8.976;2024-01-10T04:30:43;-4.60;1.00
15937;DHT22;9163;48.818;8.976;2024-01-10T04:33:10;-4.70;1.00
15937;DHT22;9163;48.818;8.976;2024-01-10T04:35:38;-4.60;1.00
15937;DHT22;9163;48.818;8.976;2024-01-10T04:38:05;-4.50;1.00
15937;DHT22;9163;48.818;8.976;2024-01-10T04:40:32;-4.60;1.00
15937;DHT22;9163;48.818;8.976;2024-01-10T04:43:01;-4.60;1.00
15937;DHT22;9163;48.818;8.976;2024-01-10T04:45:28;-4.60;1.00
15937;DHT22;9163;48.818;8.976;2024-01-10T04:47:55;-4.60;1.00
15937;DHT22;9163;48.818;8.976;2024-01-10T04:50:22;-4.60;1.00
15937;DHT22;9163;48.818;8.976;2024-01-10T04:52:50;-4.60;1.00
15937;DHT22;9163;48.818;8.976;2024-01-10T04:55:17;-4.60;1.00
15937;DHT22;9163;48.818;8.976;2024-01-10T04:57:44;-4.50;1.00
15937;DHT22;9163;48.818;8.976;2024-01-10T05:00:13;-4.50;1.00
15937;DHT22;9163;48.818;8.976;2024-01-10T05:02:40;-4.60;1.00
15937;DHT22;9163;48.818;8.976;2024-01-10T05:05:08;-4.60;1.00
15937;DHT22;9163;48.818;8.976;2024-01-10T05:07:35;-4.70;1.00
15937;DHT22;9163;48.818;8.976;2024-01-10T05:10:03;-4.70;1.00
15937;DHT22;9163;48.818;8.976;2024-01-10T05:12:30;-4.70;1.00
15937;DHT22;9163;48.818;8.976;2024-01-10T05:14:57;-4.80;1.00
15937;DHT22;9163;48.818;8.976;2024-01-10T05:17:26;-4.70;99.90
15937;DHT22;9163;48.818;8.976;2024-01-10T05:19:53;-4.80;99.90
15937;DHT22;9163;48.818;8.976;2024-01-10T05:22:20;-4.80;99.90
15937;DHT22;9163;48.818;8.976;2024-01-10T05:24:48;-4.90;99.90
15937;DHT22;9163;48.818;8.976;2024-01-10T05:27:15;-4.90;99.90
15937;DHT22;9163;48.818;8.976;2024-01-10T05:29:42;-4.90;1.00
15937;DHT22;9163;48.818;8.976;2024-01-10T05:32:09;-5.00;1.00
15937;DHT22;9163;48.818;8.976;2024-01-10T05:34:38;-5.00;1.00
15937;DHT22;9163;48.818;8.976;2024-01-10T05:37:05;-5.00;1.00
15937;DHT22;9163;48.818;8.976;2024-01-10T05:39:32;-4.90;1.00
15937;DHT22;9163;48.818;8.976;2024-01-10T05:42:00;-4.90;99.90
15937;DHT22;9163;48.818;8.976;2024-01-10T05:44:29;-4.90;99.90
15937;DHT22;9163;48.818;8.976;2024-01-10T05:46:56;-4.90;99.90
15937;DHT22;9163;48.818;8.976;2024-01-10T05:49:25;-4.90;99.90
15937;DHT22;9163;48.818;8.976;2024-01-10T05:51:54;-5.00;99.90
15937;DHT22;9163;48.818;8.976;2024-01-10T05:54:21;-5.10;99.90
15937;DHT22;9163;48.818;8.976;2024-01-10T05:56:49;-5.20;99.90
15937;DHT22;9163;48.818;8.976;2024-01-10T05:59:16;-5.30;99.90
15937;DHT22;9163;48.818;8.976;2024-01-10T06:01:44;-5.40;1.00
15937;DHT22;9163;48.818;8.976;2024-01-10T06:04:11;-5.40;1.00
15937;DHT22;9163;48.818;8.976;2024-01-10T06:06:38;-5.40;1.00
15937;DHT22;9163;48.818;8.976;2024-01-10T06:09:07;-5.50;1.00
15937;DHT22;9163;48.818;8.976;2024-01-10T06:11:40;-5.50;1.00
15937;DHT22;9163;48.818;8.976;2024-01-10T06:14:09;-5.60;1.00
15937;DHT22;9163;48.818;8.976;2024-01-10T06:16:36;-5.60;1.00
15937;DHT22;9163;48.818;8.976;2024-01-10T06:19:03;-5.60;1.00
15937;DHT22;9163;48.818;8.976;2024-01-10T06:21:31;-5.70;1.00
15937;DHT22;9163;48.818;8.976;2024-01-10T06:23:58;-5.80;1.00
15937;DHT22;9163;48.818;8.976;2024-01-10T06:26:27;-5.90;1.00
15937;DHT22;9163;48.818;8.976;2024-01-10T06:28:55;-5.90;1.00
15937;DHT22;9163;48.818;8.976;2024-01-10T06:31:22;-6.00;1.00
15937;DHT22;9163;48.818;8.976;2024-01-10T06:33:49;-6.00;1.00
15937;DHT22;9163;48.818;8.976;2024-01-10T06:36:16;-6.00;1.00
15937;DHT22;9163;48.818;8.976;2024-01-10T06:38:44;-6.10;1.00
15937;DHT22;9163;48.818;8.976;2024-01-10T06:41:11;-6.20;1.00
15937;DHT22;9163;48.818;8.976;2024-01-10T06:43:41;-6.10;1.00
15937;DHT22;9163;48.818;8.976;2024-01-10T06:46:09;-6.10;1.00
15937;DHT22;9163;48.818;8.976;2024-01-10T06:48:36;-6.10;1.00
15937;DHT22;9163;48.818;8.976;2024-01-10T06:51:04;-6.20;1.00
15937;DHT22;9163;48.818;8.976;2024-01-10T06:53:32;-6.20;1.00
15937;DHT22;9163;48.818;8.976;2024-01-10T06:55:59;-6.30;1.00
15937;DHT22;9163;48.818;8.976;2024-01-10T06:58:27;-6.30;1.00
15937;DHT22;9163;48.818;8.976;2024-01-10T07:00:56;-6.30;1.00
15937;DHT22;9163;48.818;8.976;2024-01-10T07:03:23;-6.40;1.00
15937;DHT22;9163;48.818;8.976;2024-01-10T07:05:50;-6.40;1.00
15937;DHT22;9163;48.818;8.976;2024-01-10T07:08:17;-6.40;1.00
15937;DHT22;9163;48.818;8.976;2024-01-10T07:10:44;-6.40;1.00
15937;DHT22;9163;48.818;8.976;2024-01-10T07:13:12;-6.40;1.00
15937;DHT22;9163;48.818;8.976;2024-01-10T07:15:39;-6.40;1.00
15937;DHT22;9163;48.818;8.976;2024-01-10T07:18:08;-6.40;1.00
15937;DHT22;9163;48.818;8.976;2024-01-10T07:20:35;-6.40;1.00
15937;DHT22;9163;48.818;8.976;2024-01-10T07:23:03;-6.30;1.00
15937;DHT22;9163;48.818;8.976;2024-01-10T07:25:31;-6.40;1.00
15937;DHT22;9163;48.818;8.976;2024-01-10T07:27:59;-6.30;1.00
15937;DHT22;9163;48.818;8.976;2024-01-10T07:30:27;-6.20;1.00
15937;DHT22;9163;48.818;8.976;2024-01-10T07:32:58;-6.20;1.00
15937;DHT22;9163;48.818;8.976;2024-01-10T07:35:27;-6.20;1.00
15937;DHT22;9163;48.818;8.976;2024-01-10T07:37:55;-6.20;1.00
15937;DHT22;9163;48.818;8.976;2024-01-10T07:40:22;-6.20;1.00
15937;DHT22;9163;48.818;8.976;2024-01-10T07:42:49;-6.20;1.00
15937;DHT22;9163;48.818;8.976;2024-01-10T07:45:17;-6.10;1.00
15937;DHT22;9163;48.818;8.976;2024-01-10T07:47:44;-6.10;1.00
15937;DHT22;9163;48.818;8.976;2024-01-10T07:50:12;-6.00;1.00
15937;DHT22;9163;48.818;8.976;2024-01-10T07:52:42;-5.90;1.00
15937;DHT22;9163;48.818;8.976;2024-01-10T07:55:09;-5.80;1.00
15937;DHT22;9163;48.818;8.976;2024-01-10T07:57:37;-5.70;1.00
15937;DHT22;9163;48.818;8.976;2024-01-10T08:00:05;-5.50;1.00
15937;DHT22;9163;48.818;8.976;2024-01-10T08:02:36;-5.40;1.00
15937;DHT22;9163;48.818;8.976;2024-01-10T08:05:04;-5.20;1.00
15937;DHT22;9163;48.818;8.976;2024-01-10T08:07:34;-5.00;1.00
15937;DHT22;9163;48.818;8.976;2024-01-10T08:10:05;-4.80;1.00
15937;DHT22;9163;48.818;8.976;2024-01-10T08:12:33;-4.40;1.00
15937;DHT22;9163;48.818;8.976;2024-01-10T08:15:00;-4.00;1.00
15937;DHT22;9163;48.818;8.976;2024-01-10T08:17:27;-3.70;1.00
15937;DHT22;9163;48.818;8.976;2024-01-10T08:19:55;-3.10;1.00
15937;DHT22;9163;48.818;8.976;2024-01-10T08:22:22;-2.40;1.00
15937;DHT22;9163;48.818;8.976;2024-01-10T08:24:50;-1.90;1.00
15937;DHT22;9163;48.818;8.976;2024-01-10T08:27:18;-1.20;1.00
15937;DHT22;9163;48.818;8.976;2024-01-10T08:29:46;-0.60;99.90
15937;DHT22;9163;48.818;8.976;2024-01-10T08:32:13;-0.20;99.90
15937;DHT22;9163;48.818;8.976;2024-01-10T08:34:41;0.20;44.50
15937;DHT22;9163;48.818;8.976;2024-01-10T08:37:08;0.50;1.00
15937;DHT22;9163;48.818;8.976;2024-01-10T08:39:35;1.00;1.00
15937;DHT22;9163;48.818;8.976;2024-01-10T08:42:03;1.10;1.00
15937;DHT22;9163;48.818;8.976;2024-01-10T08:44:32;1.60;1.00
15937;DHT22;9163;48.818;8.976;2024-01-10T08:46:59;2.40;1.00
15937;DHT22;9163;48.818;8.976;2024-01-10T08:49:26;3.20;1.00
15937;DHT22;9163;48.818;8.976;2024-01-10T08:51:54;3.40;99.90
15937;DHT22;9163;48.818;8.976;2024-01-10T08:54:21;3.90;99.90
15937;DHT22;9163;48.818;8.976;2024-01-10T08:56:48;3.80;99.90
15937;DHT22;9163;48.818;8.976;2024-01-10T08:59:16;4.10;99.90
15937;DHT22;9163;48.818;8.976;2024-01-10T09:01:46;4.30;96.00
15937;DHT22;9163;48.818;8.976;2024-01-10T09:04:14;4.80;99.90
15937;DHT22;9163;48.818;8.976;2024-01-10T09:06:41;5.20;99.90
15937;DHT22;9163;48.818;8.976;2024-01-10T09:09:08;5.20;1.00
15937;DHT22;9163;48.818;8.976;2024-01-10T09:11:36;5.80;99.90
15937;DHT22;9163;48.818;8.976;2024-01-10T09:14:03;5.90;1.00
15937;DHT22;9163;48.818;8.976;2024-01-10T09:16:30;6.00;1.00
15937;DHT22;9163;48.818;8.976;2024-01-10T09:18:59;5.70;1.00
15937;DHT22;9163;48.818;8.976;2024-01-10T09:21:26;5.70;1.00
15937;DHT22;9163;48.818;8.976;2024-01-10T09:23:53;5.80;1.00
15937;DHT22;9163;48.818;8.976;2024-01-10T09:26:21;5.80;1.00
15937;DHT22;9163;48.818;8.976;2024-01-10T09:28:49;6.50;1.00
15937;DHT22;9163;48.818;8.976;2024-01-10T09:31:16;6.90;1.00
15937;DHT22;9163;48.818;8.976;2024-01-10T09:33:43;7.10;1.00
15937;DHT22;9163;48.818;8.976;2024-01-10T09:36:12;7.50;1.00
15937;DHT22;9163;48.818;8.976;2024-01-10T09:38:40;7.20;1.00
15937;DHT22;9163;48.818;8.976;2024-01-10T09:41:09;8.00;1.00
15937;DHT22;9163;48.818;8.976;2024-01-10T09:43:38;8.00;1.00
15937;DHT22;9163;48.818;8.976;2024-01-10T09:46:07;8.30;1.00
15937;DHT22;9163;48.818;8.976;2024-01-10T09:48:35;7.70;99.90
15937;DHT22;9163;48.818;8.976;2024-01-10T09:51:03;7.00;99.90
15937;DHT22;9163;48.818;8.976;2024-01-10T09:53:35;7.10;1.00
15937;DHT22;9163;48.818;8.976;2024-01-10T09:56:04;6.70;1.00
15937;DHT22;9163;48.818;8.976;2024-01-10T09:58:31;6.30;99.90
15937;DHT22;9163;48.818;8.976;2024-01-10T10:01:04;6.00;99.90
15937;DHT22;9163;48.818;8.976;2024-01-10T10:03:36;6.50;99.90
15937;DHT22;9163;48.818;8.976;2024-01-10T10:06:04;7.30;99.90
15937;DHT22;9163;48.818;8.976;2024-01-10T10:08:33;6.70;99.90
15937;DHT22;9163;48.818;8.976;2024-01-10T10:11:00;7.60;99.90
15937;DHT22;9163;48.818;8.976;2024-01-10T10:13:29;8.00;99.90
15937;DHT22;9163;48.818;8.976;2024-01-10T10:15:59;8.30;99.90
15937;DHT22;9163;48.818;8.976;2024-01-10T10:18:27;8.10;99.90
15937;DHT22;9163;48.818;8.976;2024-01-10T10:21:07;9.40;99.90
15937;DHT22;9163;48.818;8.976;2024-01-10T10:23:36;9.30;99.90
15937;DHT22;9163;48.818;8.976;2024-01-10T10:26:11;9.30;50.50
15937;DHT22;9163;48.818;8.976;2024-01-10T10:28:40;9.90;20.90
15937;DHT22;9163;48.818;8.976;2024-01-10T10:31:07;10.50;28.50
15937;DHT22;9163;48.818;8.976;2024-01-10T10:33:37;9.60;1.00
15937;DHT22;9163;48.818;8.976;2024-01-10T10:36:05;10.10;1.00
15937;DHT22;9163;48.818;8.976;2024-01-10T10:38:33;8.20;1.00
15937;DHT22;9163;48.818;8.976;2024-01-10T10:41:05;9.70;1.00
15937;DHT22;9163;48.818;8.976;2024-01-10T10:43:34;10.60;1.00
15937;DHT22;9163;48.818;8.976;2024-01-10T10:46:04;10.60;99.90
15937;DHT22;9163;48.818;8.976;2024-01-10T10:48:32;10.90;99.90
15937;DHT22;9163;48.818;8.976;2024-01-10T10:51:05;11.50;1.00
15937;DHT22;9163;48.818;8.976;2024-01-10T10:53:35;12.50;1.00
15937;DHT22;9163;48.818;8.976;2024-01-10T10:56:05;11.40;1.00
15937;DHT22;9163;48.818;8.976;2024-01-10T10:58:34;11.30;1.00
15937;DHT22;9163;48.818;8.976;2024-01-10T11:01:04;11.50;1.00
15937;DHT22;9163;48.818;8.976;2024-01-10T11:03:35;11.50;1.00
15937;DHT22;9163;48.818;8.976;2024-01-10T11:06:04;11.10;1.00
15937;DHT22;9163;48.818;8.976;2024-01-10T11:08:35;11.80;1.00
15937;DHT22;9163;48.818;8.976;2024-01-10T11:11:07;12.40;1.00
15937;DHT22;9163;48.818;8.976;2024-01-10T11:13:56;12.70;1.00
15937;DHT22;9163;48.818;8.976;2024-01-10T11:16:47;14.00;1.00
15937;DHT22;9163;48.818;8.976;2024-01-10T11:19:51;15.40;99.90
15937;DHT22;9163;48.818;8.976;2024-01-10T11:22:36;15.70;99.90
15937;DHT22;9163;48.818;8.976;2024-01-10T11:25:08;15.00;99.90
15937;DHT22;9163;48.818;8.976;2024-01-10T11:27:38;15.00;99.90
15937;DHT22;9163;48.818;8.976;2024-01-10T11:30:06;14.10;1.00
15937;DHT22;9163;48.818;8.976;2024-01-10T11:32:34;15.30;1.00
15937;DHT22;9163;48.818;8.976;2024-01-10T11:35:05;16.30;1.00
15937;DHT22;9163;48.818;8.976;2024-01-10T11:37:42;15.80;1.00
15937;DHT22;9163;48.818;8.976;2024-01-10T11:40:12;16.50;1.00
15937;DHT22;9163;48.818;8.976;2024-01-10T11:42:44;17.90;1.00
15937;DHT22;9163;48.818;8.976;2024-01-10T11:48:00;16.10;1.00
15937;DHT22;9163;48.818;8.976;2024-01-10T11:50:29;16.30;99.90
15937;DHT22;9163;48.818;8.976;2024-01-10T11:52:57;17.20;99.90
15937;DHT22;9163;48.818;8.976;2024-01-10T11:55:49;16.40;99.90
15937;DHT22;9163;48.818;8.976;2024-01-10T11:58:19;16.40;99.90
15937;DHT22;9163;48.818;8.976;2024-01-10T12:00:46;16.90;99.90
15937;DHT22;9163;48.818;8.976;2024-01-10T12:03:14;17.70;99.90
15937;DHT22;9163;48.818;8.976;2024-01-10T12:05:43;17.70;99.90
15937;DHT22;9163;48.818;8.976;2024-01-10T12:08:10;17.30;99.90
15937;DHT22;9163;48.818;8.976;2024-01-10T12:10:37;17.00;99.90
15937;DHT22;9163;48.818;8.976;2024-01-10T12:13:05;17.40;99.90
15937;DHT22;9163;48.818;8.976;2024-01-10T12:15:34;17.70;99.90
15937;DHT22;9163;48.818;8.976;2024-01-10T12:18:02;18.80;99.90
15937;DHT22;9163;48.818;8.976;2024-01-10T12:20:30;18.70;99.90
15937;DHT22;9163;48.818;8.976;2024-01-10T12:22:58;19.50;99.90
15937;DHT22;9163;48.818;8.976;2024-01-10T12:25:26;20.40;1.00
15937;DHT22;9163;48.818;8.976;2024-01-10T12:27:53;20.40;1.00
15937;DHT22;9163;48.818;8.976;2024-01-10T12:30:20;19.60;1.00
15937;DHT22;9163;48.818;8.976;2024-01-10T12:32:51;19.10;1.00
15937;DHT22;9163;48.818;8.976;2024-01-10T12:35:19;18.90;99.90
15937;DHT22;9163;48.818;8.976;2024-01-10T12:37:53;19.40;1.00
15937;DHT22;9163;48.818;8.976;2024-01-10T12:40:21;20.00;99.90
15937;DHT22;9163;48.818;8.976;2024-01-10T12:42:48;20.30;1.00
15937;DHT22;9163;48.818;8.976;2024-01-10T12:45:22;20.50;1.00
15937;DHT22;9163;48.818;8.976;2024-01-10T12:47:50;20.70;99.90
15937;DHT22;9163;48.818;8.976;2024-01-10T12:50:19;19.90;99.90
15937;DHT22;9163;48.818;8.976;2024-01-10T12:52:47;20.00;1.00
15937;DHT22;9163;48.818;8.976;2024-01-10T12:55:14;20.50;1.00
15937;DHT22;9163;48.818;8.976;2024-01-10T12:57:43;20.90;1.00
15937;DHT22;9163;48.818;8.976;2024-01-10T13:00:11;20.50;1.00
15937;DHT22;9163;48.818;8.976;2024-01-10T13:02:40;20.80;1.00
15937;DHT22;9163;48.818;8.976;2024-01-10T13:05:09;21.30;1.00
15937;DHT22;9163;48.818;8.976;2024-01-10T13:07:36;20.90;99.90
15937;DHT22;9163;48.818;8.976;2024-01-10T13:10:04;20.00;99.90
15937;DHT22;9163;48.818;8.976;2024-01-10T13:12:31;19.40;99.90
15937;DHT22;9163;48.818;8.976;2024-01-10T13:14:58;19.20;99.90
15937;DHT22;9163;48.818;8.976;2024-01-10T13:17:25;20.20;99.90
15937;DHT22;9163;48.818;8.976;2024-01-10T13:19:53;20.30;99.90
15937;DHT22;9163;48.818;8.976;2024-01-10T13:22:21;20.70;99.90
15937;DHT22;9163;48.818;8.976;2024-01-10T13:24:49;19.80;99.90
15937;DHT22;9163;48.818;8.976;2024-01-10T13:27:16;19.70;99.90
15937;DHT22;9163;48.818;8.976;2024-01-10T13:29:43;19.70;1.00
15937;DHT22;9163;48.818;8.976;2024-01-10T13:32:10;18.80;99.90
15937;DHT22;9163;48.818;8.976;2024-01-10T13:34:38;19.80;99.90
15937;DHT22;9163;48.818;8.976;2024-01-10T13:37:05;19.20;99.90
15937;DHT22;9163;48.818;8.976;2024-01-10T13:39:34;19.00;99.90
15937;DHT22;9163;48.818;8.976;2024-01-10T13:42:02;18.60;99.90
15937;DHT22;9163;48.818;8.976;2024-01-10T13:44:30;18.30;1.00
15937;DHT22;9163;48.818;8.976;2024-01-10T13:46:57;18.40;1.00
15937;DHT22;9163;48.818;8.976;2024-01-10T13:49:24;17.90;99.90
15937;DHT22;9163;48.818;8.976;2024-01-10T13:51:51;18.50;99.90
15937;DHT22;9163;48.818;8.976;2024-01-10T13:54:18;18.40;99.90
15937;DHT22;9163;48.818;8.976;2024-01-10T13:56:48;19.00;1.00
15937;DHT22;9163;48.818;8.976;2024-01-10T13:59:16;18.00;99.90
15937;DHT22;9163;48.818;8.976;2024-01-10T14:01:43;18.70;99.90
15937;DHT22;9163;48.818;8.976;2024-01-10T14:04:10;18.50;99.90
15937;DHT22;9163;48.818;8.976;2024-01-10T14:06:38;19.10;99.90
15937;DHT22;9163;48.818;8.976;2024-01-10T14:09:05;19.40;99.90
15937;DHT22;9163;48.818;8.976;2024-01-10T14:11:35;19.10;99.90
15937;DHT22;9163;48.818;8.976;2024-01-10T14:14:04;18.40;99.90
15937;DHT22;9163;48.818;8.976;2024-01-10T14:16:31;17.20;32.50
15937;DHT22;9163;48.818;8.976;2024-01-10T14:18:58;17.90;17.60
15937;DHT22;9163;48.818;8.976;2024-01-10T14:21:26;17.70;71.70
15937;DHT22;9163;48.818;8.976;2024-01-10T14:23:53;17.60;62.10
15937;DHT22;9163;48.818;8.976;2024-01-10T14:26:20;17.50;1.00
15937;DHT22;9163;48.818;8.976;2024-01-10T14:28:47;17.30;1.00
15937;DHT22;9163;48.818;8.976;2024-01-10T14:31:16;16.60;1.00
15937;DHT22;9163;48.818;8.976;2024-01-10T14:33:43;16.60;1.00
15937;DHT22;9163;48.818;8.976;2024-01-10T14:36:11;16.40;1.00
15937;DHT22;9163;48.818;8.976;2024-01-10T14:38:38;15.90;1.00
15937;DHT22;9163;48.818;8.976;2024-01-10T14:41:06;15.60;1.00
15937;DHT22;9163;48.818;8.976;2024-01-10T14:43:37;15.40;1.00
15937;DHT22;9163;48.818;8.976;2024-01-10T14:46:04;15.20;1.00
15937;DHT22;9163;48.818;8.976;2024-01-10T14:48:33;14.60;1.00
15937;DHT22;9163;48.818;8.976;2024-01-10T14:51:00;14.10;1.00
15937;DHT22;9163;48.818;8.976;2024-01-10T14:53:28;13.70;1.00
15937;DHT22;9163;48.818;8.976;2024-01-10T14:55:55;13.30;1.00
15937;DHT22;9163;48.818;8.976;2024-01-10T14:58:22;12.80;1.00
15937;DHT22;9163;48.818;8.976;2024-01-10T15:00:49;12.40;1.00
15937;DHT22;9163;48.818;8.976;2024-01-10T15:03:17;11.60;1.00
15937;DHT22;9163;48.818;8.976;2024-01-10T15:05:45;12.00;1.00
15937;DHT22;9163;48.818;8.976;2024-01-10T15:08:12;11.60;1.00
15937;DHT22;9163;48.818;8.976;2024-01-10T15:10:40;11.10;1.00
15937;DHT22;9163;48.818;8.976;2024-01-10T15:13:08;10.80;1.00
15937;DHT22;9163;48.818;8.976;2024-01-10T15:15:37;10.20;1.00
15937;DHT22;9163;48.818;8.976;2024-01-10T15:18:06;9.70;1.00
15937;DHT22;9163;48.818;8.976;2024-01-10T15:20:33;9.50;1.00
15937;DHT22;9163;48.818;8.976;2024-01-10T15:23:02;8.90;1.00
15937;DHT22;9163;48.818;8.976;2024-01-10T15:25:30;8.50;1.00
15937;DHT22;9163;48.818;8.976;2024-01-10T15:27:57;7.90;1.00
15937;DHT22;9163;48.818;8.976;2024-01-10T15:30:24;7.60;1.00
15937;DHT22;9163;48.818;8.976;2024-01-10T15:32:52;7.20;1.00
15937;DHT22;9163;48.818;8.976;2024-01-10T15:35:19;6.60;1.00
15937;DHT22;9163;48.818;8.976;2024-01-10T15:37:46;5.80;1.00
15937;DHT22;9163;48.818;8.976;2024-01-10T15:40:16;5.20;1.00
15937;DHT22;9163;48.818;8.976;2024-01-10T15:42:43;4.40;1.00
15937;DHT22;9163;48.818;8.976;2024-01-10T15:45:11;3.80;1.00
15937;DHT22;9163;48.818;8.976;2024-01-10T15:47:38;3.20;1.00
15937;DHT22;9163;48.818;8.976;2024-01-10T15:50:07;2.70;1.00
15937;DHT22;9163;48.818;8.976;2024-01-10T15:52:35;2.20;1.00
15937;DHT22;9163;48.818;8.976;2024-01-10T15:55:04;1.80;1.00
15937;DHT22;9163;48.818;8.976;2024-01-10T15:57:33;1.50;1.00
15937;DHT22;9163;48.818;8.976;2024-01-10T16:00:00;1.10;1.00
15937;DHT22;9163;48.818;8.976;2024-01-10T16:02:27;1.00;1.00
15937;DHT22;9163;48.818;8.976;2024-01-10T16:04:57;0.70;1.00
15937;DHT22;9163;48.818;8.976;2024-01-10T16:07:24;0.60;1.00
15937;DHT22;9163;48.818;8.976;2024-01-10T16:09:51;0.40;1.00